OITP

Details ICAO OITP (PFQ)
Name PARSABADE MOGHAN
Region Iran
Timezone Asia/Tehran (UTC+3.5)
Plans Departing 0
Arriving 2
Stats Elevation 253 ft / 77 m (AMSL)
Location 39.603673° 47.881496°
Runways 1
Magnetic Variation 6.009° E
Sunrise 2017-12-11 04:00:22 UTC / 2017-12-11 07:30:22 Local
Sunset 2017-12-11 13:25:53 UTC / 2017-12-11 16:55:53 Local
Advertisement - Login to hide

Runways

ID Width Length Bearing (true) Bearing (mag) Surface Threshold Offset Overrun Length
11 115 ft / 35 m 8,476 ft / 2,583 m 110.73° 104.72° Asphalt 0 ft / 0 m 0 ft / 0 m
29 115 ft / 35 m 8,476 ft / 2,583 m 290.75° 284.74° Asphalt 0 ft / 0 m 630 ft / 192 m

Map

Weather


0- 5 10 15 20 25 30 35+ Temperature / ° C

Clouds and Precipitation
Forecast for 2017-12-11 18:00 UTC. Updated 2 hours ago

Ground ~20,000 ft ~40,000 ft Winds

METAR

OITP 111400Z 20006KT CAVOK 07/00 Q1020

TAF

Not found

Frequencies

Tower 122.80 MHz INFO
Warning: Do not use this data for real-world aviation or navigation. No guarantee of current accuracy is given.